Aviation Digital Data Service (ADDS)

Output produced by METARs form (0348 UTC 14 February 2016)
found at http://aviationweather.gov/adds/metars/
 
KDEN 140232Z 1403/1506 31012KT P6SM FEW120 BKN250 
     FM140330 31012G25KT P6SM SCT250 
     FM140440 02018G30KT P6SM FEW080 SCT250 
     FM140700 06010KT P6SM FEW080 SCT250 
     FM141100 15008KT P6SM FEW120 SCT180 
     FM141500 18008KT P6SM SCT120 BKN180 
     FM142200 29010KT P6SM SCT080 BKN120 
     FM150200 21008KT P6SM SCT080 BKN120